Time;durP1;ratioP1;P1;durP2;ratioP2;P2;SDS_P1;SDS_P2;PMS_P1;PMS_P2;Temp;Humidity;BMP_temperature;BMP_pressure;BME280_temperature;BME280_humidity;BME280_pressure;Samples;Min_cycle;Max_cycle;Signal;HPM_P1;HPM_P2
2023/01/01 00:01:08;;;;;;;671.65;573.08;;;;;;;;;;5083709;28;20204;-70
2023/01/01 00:03:34;;;;;;;634.13;526.60;;;;;;;;;;5083492;28;20196;-70
2023/01/01 00:06:04;;;;;;;629.25;520.65;;;;;;;;;;5082457;28;20227;-70
2023/01/01 00:08:30;;;;;;;598.30;490.33;;;;;;;;;;5082943;28;20203;-70
2023/01/01 00:11:00;;;;;;;558.85;434.35;;;;;;;;;;5083094;28;20284;-70
2023/01/01 00:13:27;;;;;;;554.55;435.00;;;;;;;;;;5083315;28;20196;-70
2023/01/01 00:15:53;;;;;;;534.13;423.75;;;;;;;;;;5083312;28;20208;-70
2023/01/01 00:18:20;;;;;;;517.97;395.00;;;;;;;;;;5082962;28;20398;-70
2023/01/01 00:20:46;;;;;;;533.17;420.38;;;;;;;;;;5083012;28;20201;-70
2023/01/01 00:23:12;;;;;;;535.55;418.13;;;;;;;;;;5082993;28;20464;-70
2023/01/01 00:25:39;;;;;;;498.73;371.50;;;;;;;;;;5082694;28;20282;-70
2023/01/01 00:28:06;;;;;;;501.08;386.55;;;;;;;;;;5082632;28;20428;-70
2023/01/01 00:30:33;;;;;;;479.08;363.73;;;;;;;;;;5083150;28;20199;-70
2023/01/01 00:32:59;;;;;;;444.27;322.48;;;;;;;;;;5083084;28;20196;-70
2023/01/01 00:35:26;;;;;;;428.10;306.65;;;;;;;;;;5083061;28;20514;-70
2023/01/01 00:37:52;;;;;;;488.13;370.23;;;;;;;;;;5083053;28;20234;-70
2023/01/01 00:40:19;;;;;;;474.00;347.48;;;;;;;;;;5082510;28;20210;-70
2023/01/01 00:42:45;;;;;;;470.83;349.95;;;;;;;;;;5082850;28;20201;-70
2023/01/01 00:45:11;;;;;;;470.83;348.85;;;;;;;;;;5082618;28;20604;-70
2023/01/01 00:47:39;;;;;;;482.40;363.17;;;;;;;;;;5083024;28;20550;-70
2023/01/01 00:50:05;;;;;;;454.65;334.15;;;;;;;;;;5082495;28;20403;-70
2023/01/01 00:52:32;;;;;;;410.08;298.98;;;;;;;;;;5082686;28;20196;-70
2023/01/01 00:54:58;;;;;;;437.45;316.60;;;;;;;;;;5082938;28;20192;-70
2023/01/01 00:57:24;;;;;;;419.83;293.10;;;;;;;;;;5082643;28;20306;-70
2023/01/01 00:59:51;;;;;;;422.42;291.73;;;;;;;;;;5082333;28;20196;-70
2023/01/01 01:02:17;;;;;;;391.27;268.10;;;;;;;;;;5082587;28;20196;-70
2023/01/01 01:04:44;;;;;;;401.88;271.30;;;;;;;;;;5082469;28;20531;-70
2023/01/01 01:07:11;;;;;;;397.42;271.30;;;;;;;;;;5082499;28;20287;-70
2023/01/01 01:09:37;;;;;;;386.98;260.52;;;;;;;;;;5082443;28;20201;-70
2023/01/01 01:12:03;;;;;;;362.25;248.15;;;;;;;;;;5082578;28;20577;-70
2023/01/01 01:14:30;;;;;;;400.75;274.02;;;;;;;;;;5082595;28;20202;-70
2023/01/01 01:16:56;;;;;;;419.20;284.92;;;;;;;;;;5081836;28;20200;-70
2023/01/01 01:19:24;;;;;;;413.08;285.00;;;;;;;;;;5081606;28;20504;-70
2023/01/01 01:21:52;;;;;;;412.25;280.65;;;;;;;;;;5082205;28;20463;-70
2023/01/01 01:24:18;;;;;;;385.83;257.67;;;;;;;;;;5082344;28;20259;-70
2023/01/01 01:26:44;;;;;;;394.35;266.80;;;;;;;;;;5082653;28;20208;-70
2023/01/01 01:29:10;;;;;;;407.95;281.20;;;;;;;;;;5081832;28;20223;-70
2023/01/01 01:31:37;;;;;;;412.83;283.80;;;;;;;;;;5082359;28;20200;-70
2023/01/01 01:34:03;;;;;;;408.33;281.83;;;;;;;;;;5082239;28;20204;-70
2023/01/01 01:36:29;;;;;;;389.85;267.77;;;;;;;;;;5082161;28;20259;-70
2023/01/01 01:38:57;;;;;;;408.98;278.77;;;;;;;;;;5081647;28;20515;-70
2023/01/01 01:41:25;;;;;;;378.67;257.75;;;;;;;;;;5082206;28;20196;-70
2023/01/01 01:43:52;;;;;;;401.90;270.85;;;;;;;;;;5082561;28;20503;-70
2023/01/01 01:46:21;;;;;;;361.08;250.75;;;;;;;;;;5082204;28;20306;-70
2023/01/01 01:48:48;;;;;;;337.35;229.95;;;;;;;;;;5081641;28;20231;-70
2023/01/01 01:51:16;;;;;;;337.13;223.25;;;;;;;;;;5082278;28;20234;-70
2023/01/01 01:53:44;;;;;;;317.60;216.52;;;;;;;;;;5082141;28;20241;-70
2023/01/01 01:56:13;;;;;;;317.65;210.70;;;;;;;;;;5081964;28;20201;-70
2023/01/01 01:58:40;;;;;;;315.50;211.27;;;;;;;;;;5081463;28;20200;-70
2023/01/01 02:01:06;;;;;;;305.35;202.75;;;;;;;;;;5081921;28;20385;-70
2023/01/01 02:03:38;;;;;;;297.27;192.88;;;;;;;;;;5081792;28;20230;-70
2023/01/01 02:06:05;;;;;;;307.67;207.55;;;;;;;;;;5081774;28;20220;-70
2023/01/01 02:08:32;;;;;;;285.90;189.35;;;;;;;;;;5081761;28;20203;-70
2023/01/01 02:10:58;;;;;;;295.60;190.73;;;;;;;;;;5081863;28;20196;-70
2023/01/01 02:13:26;;;;;;;269.80;182.88;;;;;;;;;;5081871;28;20196;-70
2023/01/01 02:15:54;;;;;;;266.20;183.15;;;;;;;;;;5081480;28;20235;-70
2023/01/01 02:18:23;;;;;;;253.95;169.23;;;;;;;;;;5081364;28;20400;-70
2023/01/01 02:20:53;;;;;;;255.10;166.93;;;;;;;;;;5082056;28;20219;-70
2023/01/01 02:23:36;;;;;;;209.05;138.02;;;;;;;;;;5081756;28;20204;-70
2023/01/01 02:26:18;;;;;;;187.00;125.03;;;;;;;;;;5081785;28;20243;-70
2023/01/01 02:28:50;;;;;;;173.38;117.75;;;;;;;;;;5079365;28;20223;-70
2023/01/01 02:31:18;;;;;;;155.63;105.40;;;;;;;;;;5085689;28;20197;-70
2023/01/01 02:33:45;;;;;;;144.18;94.75;;;;;;;;;;5070151;28;20220;-70
2023/01/01 02:36:12;;;;;;;124.80;86.60;;;;;;;;;;5073829;28;20192;-70
2023/01/01 02:38:41;;;;;;;112.50;74.85;;;;;;;;;;5073653;28;20212;-70
2023/01/01 02:41:09;;;;;;;115.72;77.47;;;;;;;;;;5072942;28;20216;-70
2023/01/01 02:43:35;;;;;;;103.65;69.95;;;;;;;;;;5075640;28;20209;-70
2023/01/01 02:46:06;;;;;;;100.68;67.38;;;;;;;;;;5067267;28;20563;-70
2023/01/01 02:48:37;;;;;;;115.78;72.30;;;;;;;;;;5074990;28;20205;-70
2023/01/01 02:51:04;;;;;;;103.63;69.07;;;;;;;;;;5079585;28;20215;-70
2023/01/01 02:53:33;;;;;;;108.38;73.13;;;;;;;;;;5079547;28;20228;-70
2023/01/01 02:56:04;;;;;;;113.65;78.20;;;;;;;;;;5079565;28;20212;-70
2023/01/01 03:01:24;;;;;;;183.90;123.40;;;;;;;;;;5080117;28;20535;-70
2023/01/01 03:03:55;;;;;;;214.52;147.50;;;;;;;;;;5079097;28;20216;-70
2023/01/01 03:06:26;;;;;;;249.57;165.05;;;;;;;;;;5079350;28;20446;-70
2023/01/01 03:08:54;;;;;;;256.02;169.75;;;;;;;;;;5078665;28;20208;-70
2023/01/01 03:11:23;;;;;;;231.88;156.27;;;;;;;;;;5079266;28;20496;-70
2023/01/01 03:13:51;;;;;;;180.50;125.30;;;;;;;;;;5079198;28;20538;-70
2023/01/01 03:16:19;;;;;;;191.07;126.43;;;;;;;;;;5079387;28;20441;-70
2023/01/01 03:19:10;;;;;;;133.43;93.28;;;;;;;;;;5083026;28;20254;-70
2023/01/01 03:21:38;;;;;;;99.72;65.30;;;;;;;;;;5084607;28;20204;-70
2023/01/01 03:24:05;;;;;;;103.15;66.88;;;;;;;;;;5084643;28;20204;-70
2023/01/01 03:26:33;;;;;;;91.65;57.28;;;;;;;;;;5084598;28;20438;-70
2023/01/01 03:29:02;;;;;;;63.72;43.05;;;;;;;;;;5083880;28;20283;-70
2023/01/01 03:31:29;;;;;;;49.40;32.90;;;;;;;;;;5084532;28;20218;-70
2023/01/01 03:34:00;;;;;;;32.80;24.77;;;;;;;;;;5084317;28;20196;-70
2023/01/01 03:36:28;;;;;;;37.60;26.85;;;;;;;;;;5084368;28;20192;-70
2023/01/01 03:38:57;;;;;;;27.20;19.27;;;;;;;;;;5084050;28;20211;-70
2023/01/01 03:41:26;;;;;;;32.72;23.30;;;;;;;;;;5082955;28;20246;-70
2023/01/01 03:43:54;;;;;;;28.38;20.55;;;;;;;;;;5084368;28;20200;-70
2023/01/01 03:46:22;;;;;;;28.23;19.80;;;;;;;;;;5084091;28;20274;-70
2023/01/01 03:48:59;;;;;;;21.75;15.98;;;;;;;;;;5083713;28;20197;-70
2023/01/01 03:51:32;;;;;;;13.95;10.30;;;;;;;;;;5084015;28;20196;-70
2023/01/01 03:54:01;;;;;;;18.15;13.75;;;;;;;;;;5083895;28;20202;-70
2023/01/01 03:56:33;;;;;;;15.60;13.10;;;;;;;;;;5084038;28;20193;-70
2023/01/01 03:59:01;;;;;;;18.40;13.65;;;;;;;;;;5083463;28;20197;-70
2023/01/01 04:01:30;;;;;;;14.63;10.25;;;;;;;;;;5084205;28;20196;-70
2023/01/01 04:03:57;;;;;;;13.85;10.80;;;;;;;;;;5083693;28;20204;-70
2023/01/01 04:06:23;;;;;;;14.88;11.30;;;;;;;;;;5083440;28;20442;-70
2023/01/01 04:08:53;;;;;;;11.27;9.55;;;;;;;;;;5083577;28;20197;-70
2023/01/01 04:14:06;;;;;;;13.65;9.70;;;;;;;;;;5083623;28;20251;-70
2023/01/01 04:16:32;;;;;;;14.20;9.90;;;;;;;;;;5083568;28;20393;-70
2023/01/01 04:18:59;;;;;;;14.02;9.65;;;;;;;;;;5082989;28;20202;-70
2023/01/01 04:21:25;;;;;;;11.55;9.40;;;;;;;;;;5083338;28;20213;-70
2023/01/01 04:23:52;;;;;;;10.32;8.73;;;;;;;;;;5083232;28;20203;-70
2023/01/01 04:26:19;;;;;;;9.57;7.90;;;;;;;;;;5083152;28;20220;-70
2023/01/01 04:28:45;;;;;;;10.70;8.38;;;;;;;;;;5082739;28;20224;-70
2023/01/01 04:31:11;;;;;;;9.38;7.85;;;;;;;;;;5083164;28;20204;-70
2023/01/01 04:33:38;;;;;;;8.27;7.35;;;;;;;;;;5083053;28;20203;-70
2023/01/01 04:36:05;;;;;;;13.15;9.10;;;;;;;;;;5083170;28;20196;-71
2023/01/01 04:38:32;;;;;;;8.73;7.82;;;;;;;;;;5082840;28;20197;-70
2023/01/01 04:41:01;;;;;;;8.95;7.57;;;;;;;;;;5083092;28;20204;-70
2023/01/01 04:43:27;;;;;;;10.85;8.25;;;;;;;;;;5082945;28;20203;-70
2023/01/01 04:45:57;;;;;;;11.13;8.48;;;;;;;;;;5082729;28;20381;-70
2023/01/01 04:48:23;;;;;;;12.45;9.07;;;;;;;;;;5082577;28;20242;-70
2023/01/01 04:50:53;;;;;;;11.00;8.07;;;;;;;;;;5082969;28;20242;-70
2023/01/01 04:53:20;;;;;;;9.55;7.50;;;;;;;;;;5082695;28;20266;-71
2023/01/01 04:55:46;;;;;;;10.40;7.90;;;;;;;;;;5082742;28;20192;-71
2023/01/01 04:58:13;;;;;;;12.20;9.90;;;;;;;;;;5082299;28;20200;-71
2023/01/01 05:00:40;;;;;;;16.85;12.05;;;;;;;;;;5082406;28;20242;-71
2023/01/01 05:03:06;;;;;;;18.88;14.57;;;;;;;;;;5082827;28;20196;-71
2023/01/01 05:05:32;;;;;;;16.10;12.77;;;;;;;;;;5082627;28;20196;-71
2023/01/01 05:07:58;;;;;;;15.57;12.32;;;;;;;;;;5082424;28;20500;-71
2023/01/01 05:10:25;;;;;;;13.07;10.80;;;;;;;;;;5082719;28;20405;-71
2023/01/01 05:12:51;;;;;;;16.45;11.20;;;;;;;;;;5082883;28;20404;-71
2023/01/01 05:15:19;;;;;;;12.02;10.13;;;;;;;;;;5082427;28;20196;-70
2023/01/01 05:17:45;;;;;;;10.48;8.70;;;;;;;;;;5082443;28;20199;-70
2023/01/01 05:20:11;;;;;;;12.35;9.57;;;;;;;;;;5082024;28;20192;-70
2023/01/01 05:22:37;;;;;;;10.07;8.00;;;;;;;;;;5082226;28;20204;-70
2023/01/01 05:25:04;;;;;;;8.20;6.90;;;;;;;;;;5082251;28;20196;-70
2023/01/01 05:27:30;;;;;;;8.10;7.05;;;;;;;;;;5082075;28;20231;-70
2023/01/01 05:29:57;;;;;;;11.45;7.68;;;;;;;;;;5081742;28;20208;-70
2023/01/01 05:32:25;;;;;;;7.72;7.00;;;;;;;;;;5082519;28;20563;-70
2023/01/01 05:34:52;;;;;;;7.93;6.45;;;;;;;;;;5082315;28;20196;-70
2023/01/01 05:37:18;;;;;;;10.10;6.72;;;;;;;;;;5082145;28;20263;-70
2023/01/01 05:39:44;;;;;;;10.00;7.40;;;;;;;;;;5081787;28;20196;-70
2023/01/01 05:42:10;;;;;;;7.15;6.32;;;;;;;;;;5082077;28;20196;-70
2023/01/01 05:44:37;;;;;;;9.40;6.22;;;;;;;;;;5081915;28;20196;-70
2023/01/01 05:47:03;;;;;;;9.52;6.60;;;;;;;;;;5081886;28;20540;-70
2023/01/01 05:49:30;;;;;;;10.50;6.50;;;;;;;;;;5081713;28;20512;-70
2023/01/01 05:51:57;;;;;;;9.05;6.57;;;;;;;;;;5082024;28;20450;-70
2023/01/01 05:54:23;;;;;;;9.55;7.18;;;;;;;;;;5081983;28;20203;-70
2023/01/01 05:56:49;;;;;;;9.02;6.93;;;;;;;;;;5081765;28;20200;-70
2023/01/01 05:59:15;;;;;;;10.90;7.53;;;;;;;;;;5081693;28;20241;-70
2023/01/01 06:01:42;;;;;;;10.13;8.73;;;;;;;;;;5082003;28;20474;-70
2023/01/01 06:04:08;;;;;;;10.00;8.85;;;;;;;;;;5083163;28;20208;-70
2023/01/01 06:06:35;;;;;;;19.27;14.90;;;;;;;;;;5085956;28;20212;-70
2023/01/01 06:09:03;;;;;;;22.58;16.60;;;;;;;;;;5085646;28;20203;-70
2023/01/01 06:11:30;;;;;;;43.75;30.13;;;;;;;;;;5085855;28;20196;-70
2023/01/01 06:13:57;;;;;;;47.08;34.22;;;;;;;;;;5085918;28;20198;-70
2023/01/01 06:16:24;;;;;;;51.15;35.05;;;;;;;;;;5085951;28;20192;-69
2023/01/01 06:18:50;;;;;;;56.53;39.47;;;;;;;;;;5085680;28;20201;-71
2023/01/01 06:21:17;;;;;;;66.57;44.58;;;;;;;;;;5085907;28;20245;-69
2023/01/01 06:23:45;;;;;;;64.00;44.10;;;;;;;;;;5085706;28;20208;-69
2023/01/01 06:26:12;;;;;;;59.03;42.67;;;;;;;;;;5085909;28;20215;-69
2023/01/01 06:28:39;;;;;;;75.65;49.25;;;;;;;;;;5085184;28;20216;-69
2023/01/01 06:31:06;;;;;;;77.55;52.78;;;;;;;;;;5085543;28;20203;-69
2023/01/01 06:33:32;;;;;;;85.03;57.42;;;;;;;;;;5085360;28;20196;-69
2023/01/01 06:35:59;;;;;;;95.50;64.22;;;;;;;;;;5085529;28;20200;-69
2023/01/01 06:38:25;;;;;;;88.93;63.80;;;;;;;;;;5084919;28;20196;-69
2023/01/01 06:40:56;;;;;;;104.22;70.72;;;;;;;;;;5085516;28;20210;-69
2023/01/01 06:43:22;;;;;;;109.75;73.35;;;;;;;;;;5085348;28;20203;-69
2023/01/01 06:45:49;;;;;;;118.45;82.90;;;;;;;;;;5085333;28;20401;-69
2023/01/01 06:48:15;;;;;;;124.05;86.05;;;;;;;;;;5084791;28;20414;-69
2023/01/01 06:50:41;;;;;;;121.18;84.70;;;;;;;;;;5085207;28;20203;-69
2023/01/01 06:53:08;;;;;;;106.40;72.35;;;;;;;;;;5085090;28;20422;-70
2023/01/01 06:55:34;;;;;;;108.68;71.85;;;;;;;;;;5086000;28;20242;-71
2023/01/01 06:58:02;;;;;;;105.15;73.47;;;;;;;;;;5085044;28;20192;-70
2023/01/01 07:00:28;;;;;;;118.15;83.38;;;;;;;;;;5084930;28;20196;-70
2023/01/01 07:02:54;;;;;;;124.28;85.65;;;;;;;;;;5084975;28;20202;-70
2023/01/01 07:05:20;;;;;;;139.75;96.88;;;;;;;;;;5084891;28;20196;-70
2023/01/01 07:07:47;;;;;;;133.55;95.75;;;;;;;;;;5084658;28;20212;-70
2023/01/01 07:10:13;;;;;;;136.65;99.18;;;;;;;;;;5084750;28;20558;-70
2023/01/01 07:12:39;;;;;;;131.55;94.68;;;;;;;;;;5085031;28;20196;-70
2023/01/01 07:15:08;;;;;;;147.13;101.65;;;;;;;;;;5084893;28;20204;-70
2023/01/01 07:17:34;;;;;;;125.72;86.05;;;;;;;;;;5084630;28;20192;-70
2023/01/01 07:20:00;;;;;;;126.47;90.35;;;;;;;;;;5084245;28;20197;-72
2023/01/01 07:22:26;;;;;;;125.68;87.13;;;;;;;;;;5084424;28;20208;-70
2023/01/01 07:24:53;;;;;;;150.95;102.78;;;;;;;;;;5084702;28;20365;-70
2023/01/01 07:27:19;;;;;;;136.00;95.25;;;;;;;;;;5084359;28;20212;-70
2023/01/01 07:29:45;;;;;;;150.30;100.43;;;;;;;;;;5084181;28;20203;-70
2023/01/01 07:32:13;;;;;;;132.18;95.28;;;;;;;;;;5084481;28;20265;-70
2023/01/01 07:34:40;;;;;;;122.32;86.63;;;;;;;;;;5084425;28;20208;-70
2023/01/01 07:37:06;;;;;;;143.05;103.45;;;;;;;;;;5084439;28;20210;-70
2023/01/01 07:39:32;;;;;;;148.63;105.90;;;;;;;;;;5084312;28;20197;-70
2023/01/01 07:41:58;;;;;;;138.05;100.57;;;;;;;;;;5084346;28;20204;-70
2023/01/01 07:44:25;;;;;;;144.68;101.28;;;;;;;;;;5084328;28;20197;-70
2023/01/01 07:47:00;;;;;;;136.85;98.15;;;;;;;;;;5084280;28;20547;-70
2023/01/01 07:49:28;;;;;;;130.43;93.65;;;;;;;;;;5083814;28;20200;-70
2023/01/01 07:51:54;;;;;;;143.68;101.97;;;;;;;;;;5084391;28;20250;-70
2023/01/01 07:54:20;;;;;;;151.68;106.63;;;;;;;;;;5084283;28;20242;-70
2023/01/01 07:56:47;;;;;;;143.70;103.53;;;;;;;;;;5084013;28;20206;-70
2023/01/01 07:59:13;;;;;;;140.63;98.38;;;;;;;;;;5083761;28;20211;-70
2023/01/01 08:01:39;;;;;;;142.35;100.78;;;;;;;;;;5083908;28;20242;-70
2023/01/01 08:04:06;;;;;;;128.68;87.50;;;;;;;;;;5083830;28;20201;-70
2023/01/01 08:06:33;;;;;;;153.82;109.45;;;;;;;;;;5084128;28;20234;-70
2023/01/01 08:09:00;;;;;;;146.40;104.47;;;;;;;;;;5083735;28;20205;-70
2023/01/01 08:11:26;;;;;;;150.35;108.63;;;;;;;;;;5084066;28;20216;-71
2023/01/01 08:13:52;;;;;;;146.38;103.05;;;;;;;;;;5084260;28;20526;-70
2023/01/01 08:16:18;;;;;;;157.02;112.00;;;;;;;;;;5083642;28;20387;-70
2023/01/01 08:18:46;;;;;;;158.32;110.65;;;;;;;;;;5083183;28;20199;-70
2023/01/01 08:21:12;;;;;;;152.27;107.82;;;;;;;;;;5083928;28;20204;-70
2023/01/01 08:23:40;;;;;;;142.88;100.47;;;;;;;;;;5083648;28;20216;-70
2023/01/01 08:26:06;;;;;;;135.57;95.32;;;;;;;;;;5083350;28;20196;-70
2023/01/01 08:28:32;;;;;;;134.55;93.28;;;;;;;;;;5082563;28;20227;-70
2023/01/01 08:30:59;;;;;;;138.38;98.07;;;;;;;;;;5083245;28;20234;-70
2023/01/01 08:33:25;;;;;;;139.10;98.70;;;;;;;;;;5083459;28;20429;-70
2023/01/01 08:35:51;;;;;;;119.63;81.03;;;;;;;;;;5083492;28;20197;-70
2023/01/01 08:38:18;;;;;;;128.57;92.60;;;;;;;;;;5082975;28;20201;-71
2023/01/01 08:40:45;;;;;;;126.13;88.53;;;;;;;;;;5083211;28;20205;-70
2023/01/01 08:43:11;;;;;;;122.75;82.63;;;;;;;;;;5083490;28;20197;-70
2023/01/01 08:45:38;;;;;;;123.60;86.55;;;;;;;;;;5082915;28;20226;-70
2023/01/01 08:48:04;;;;;;;128.15;89.40;;;;;;;;;;5082586;28;20220;-70
2023/01/01 08:50:30;;;;;;;114.80;78.95;;;;;;;;;;5083160;28;20205;-70
2023/01/01 08:52:57;;;;;;;116.93;82.57;;;;;;;;;;5083056;28;20200;-70
2023/01/01 08:55:23;;;;;;;125.18;88.25;;;;;;;;;;5082968;28;20198;-70
2023/01/01 08:57:51;;;;;;;116.30;81.05;;;;;;;;;;5082883;28;20390;-70
2023/01/01 09:00:17;;;;;;;131.30;90.13;;;;;;;;;;5082359;28;20196;-70
2023/01/01 09:02:44;;;;;;;117.53;82.25;;;;;;;;;;5083067;28;20196;-71
2023/01/01 09:05:10;;;;;;;122.63;82.95;;;;;;;;;;5082961;28;20200;-71
2023/01/01 09:07:36;;;;;;;109.03;79.35;;;;;;;;;;5082737;28;20229;-71
2023/01/01 09:10:03;;;;;;;102.43;70.78;;;;;;;;;;5082330;28;20208;-71
2023/01/01 09:12:30;;;;;;;113.70;78.72;;;;;;;;;;5082653;28;20197;-71
2023/01/01 09:14:57;;;;;;;112.07;81.45;;;;;;;;;;5082569;28;20207;-70
2023/01/01 09:17:23;;;;;;;102.72;74.72;;;;;;;;;;5082678;28;20196;-70
2023/01/01 09:19:50;;;;;;;107.35;77.72;;;;;;;;;;5082102;28;20203;-70
2023/01/01 09:22:16;;;;;;;112.05;81.28;;;;;;;;;;5082710;28;20204;-70
2023/01/01 09:24:42;;;;;;;104.97;77.32;;;;;;;;;;5082560;28;20196;-70
2023/01/01 09:27:08;;;;;;;104.75;70.57;;;;;;;;;;5082259;28;20212;-70
2023/01/01 09:29:35;;;;;;;94.38;68.28;;;;;;;;;;5082149;28;20208;-70
2023/01/01 09:32:03;;;;;;;100.63;74.10;;;;;;;;;;5082241;28;20196;-70
2023/01/01 09:34:29;;;;;;;113.60;81.05;;;;;;;;;;5082209;28;20197;-71
2023/01/01 09:36:55;;;;;;;99.97;69.68;;;;;;;;;;5082292;28;20254;-71
2023/01/01 09:39:21;;;;;;;93.85;65.20;;;;;;;;;;5081075;28;20527;-71
2023/01/01 09:41:57;;;;;;;89.47;63.83;;;;;;;;;;5082116;28;20196;-70
2023/01/01 09:44:37;;;;;;;89.00;61.88;;;;;;;;;;5082165;28;20195;-70
2023/01/01 09:47:11;;;;;;;75.53;55.20;;;;;;;;;;5082149;28;20203;-70
2023/01/01 09:49:39;;;;;;;86.13;59.08;;;;;;;;;;5081680;28;20204;-61
2023/01/01 09:52:06;;;;;;;89.80;64.70;;;;;;;;;;5082187;28;20457;-61
2023/01/01 09:54:33;;;;;;;85.30;61.10;;;;;;;;;;5082738;28;20400;-61
2023/01/01 09:57:01;;;;;;;91.18;64.28;;;;;;;;;;5082111;28;20203;-61
2023/01/01 09:59:28;;;;;;;78.55;56.67;;;;;;;;;;5081856;28;20196;-62
2023/01/01 10:01:56;;;;;;;99.93;69.10;;;;;;;;;;5081842;28;20196;-62
2023/01/01 10:04:28;;;;;;;87.70;64.22;;;;;;;;;;5081868;28;20207;-62
2023/01/01 10:06:57;;;;;;;91.78;65.50;;;;;;;;;;5081576;28;20200;-62
2023/01/01 10:09:27;;;;;;;80.35;58.10;;;;;;;;;;5081441;28;20192;-62
2023/01/01 10:11:57;;;;;;;80.70;58.20;;;;;;;;;;5082070;28;20417;-62
2023/01/01 10:14:26;;;;;;;72.38;51.65;;;;;;;;;;5081742;28;20241;-62
2023/01/01 10:16:54;;;;;;;67.88;48.85;;;;;;;;;;5081597;28;20494;-62
2023/01/01 10:19:24;;;;;;;65.95;47.10;;;;;;;;;;5081146;28;20192;-62
2023/01/01 10:21:52;;;;;;;71.75;49.97;;;;;;;;;;5081409;28;20244;-62
2023/01/01 10:24:27;;;;;;;77.75;54.45;;;;;;;;;;5081740;28;20542;-62
2023/01/01 10:26:55;;;;;;;66.40;47.22;;;;;;;;;;5081466;28;20196;-62
2023/01/01 10:29:24;;;;;;;71.15;48.60;;;;;;;;;;5081103;28;20398;-63
2023/01/01 10:31:53;;;;;;;73.05;52.45;;;;;;;;;;5081404;28;20196;-62
2023/01/01 10:34:22;;;;;;;79.47;55.33;;;;;;;;;;5081323;28;20276;-62
2023/01/01 10:36:49;;;;;;;60.00;45.15;;;;;;;;;;5081417;28;20225;-62
2023/01/01 10:39:17;;;;;;;71.47;51.47;;;;;;;;;;5081333;28;20196;-62
2023/01/01 10:41:44;;;;;;;64.32;46.63;;;;;;;;;;5081175;28;20203;-62
2023/01/01 10:44:11;;;;;;;64.80;48.30;;;;;;;;;;5077308;28;20196;-62
2023/01/01 10:46:41;;;;;;;63.67;46.97;;;;;;;;;;5066575;28;20217;-62
2023/01/01 10:49:09;;;;;;;62.30;46.03;;;;;;;;;;5059079;28;20224;-62
2023/01/01 10:51:37;;;;;;;71.20;52.20;;;;;;;;;;5072144;28;20280;-61
2023/01/01 10:54:03;;;;;;;71.45;53.05;;;;;;;;;;5072437;28;20208;-62
2023/01/01 10:56:39;;;;;;;69.22;52.25;;;;;;;;;;5079708;28;20387;-62
2023/01/01 10:59:27;;;;;;;74.45;55.65;;;;;;;;;;5079500;28;20240;-62
2023/01/01 11:02:07;;;;;;;67.57;50.42;;;;;;;;;;5079639;28;20212;-62
2023/01/01 11:04:33;;;;;;;73.57;51.30;;;;;;;;;;5077858;28;20231;-62
2023/01/01 11:07:00;;;;;;;75.78;50.92;;;;;;;;;;5059915;28;20209;-61
2023/01/01 11:09:27;;;;;;;69.00;49.47;;;;;;;;;;5065071;28;20227;-60
2023/01/01 11:11:56;;;;;;;71.68;51.13;;;;;;;;;;5084111;28;20197;-61
2023/01/01 11:14:29;;;;;;;63.22;47.00;;;;;;;;;;5085061;28;20429;-61
2023/01/01 11:16:56;;;;;;;61.80;44.33;;;;;;;;;;5085083;28;20203;-61
2023/01/01 11:19:24;;;;;;;56.75;43.10;;;;;;;;;;5084861;28;20193;-62
2023/01/01 11:21:50;;;;;;;59.72;43.22;;;;;;;;;;5084902;28;20250;-61
2023/01/01 11:24:18;;;;;;;57.58;44.38;;;;;;;;;;5085035;28;20208;-61
2023/01/01 11:26:45;;;;;;;65.78;47.20;;;;;;;;;;5085023;28;20203;-62
2023/01/01 11:29:25;;;;;;;60.60;42.42;;;;;;;;;;5084299;28;20224;-62
2023/01/01 11:31:51;;;;;;;61.10;43.13;;;;;;;;;;5084764;28;20196;-61
2023/01/01 11:34:27;;;;;;;52.75;41.13;;;;;;;;;;5084353;28;20204;-62
2023/01/01 11:37:05;;;;;;;57.08;40.13;;;;;;;;;;5084647;28;20516;-62
2023/01/01 11:39:34;;;;;;;49.72;37.47;;;;;;;;;;5083961;28;20192;-62
2023/01/01 11:42:01;;;;;;;48.75;36.70;;;;;;;;;;5084089;28;20223;-61
2023/01/01 11:44:33;;;;;;;48.40;36.60;;;;;;;;;;5084311;28;20274;-62
2023/01/01 11:47:00;;;;;;;48.55;38.05;;;;;;;;;;5084292;28;20414;-62
2023/01/01 11:49:28;;;;;;;49.35;35.58;;;;;;;;;;5084141;28;20539;-62
2023/01/01 11:51:54;;;;;;;38.90;30.77;;;;;;;;;;5084499;28;20205;-62
2023/01/01 11:54:23;;;;;;;39.40;29.80;;;;;;;;;;5084674;28;20434;-62
2023/01/01 11:56:52;;;;;;;39.55;29.73;;;;;;;;;;5084998;28;20208;-62
2023/01/01 11:59:21;;;;;;;30.25;24.35;;;;;;;;;;5083902;28;20205;-62
2023/01/01 12:01:51;;;;;;;28.08;22.80;;;;;;;;;;5083633;28;20200;-62
2023/01/01 12:04:19;;;;;;;27.30;21.50;;;;;;;;;;5084245;28;20196;-62
2023/01/01 12:06:49;;;;;;;21.38;17.30;;;;;;;;;;5084294;28;20197;-62
2023/01/01 12:09:17;;;;;;;16.73;12.30;;;;;;;;;;5083574;28;20223;-62
2023/01/01 12:11:46;;;;;;;17.42;11.60;;;;;;;;;;5083803;28;20200;-62
2023/01/01 12:14:16;;;;;;;16.70;12.85;;;;;;;;;;5083865;28;20249;-61
2023/01/01 12:16:48;;;;;;;16.83;13.25;;;;;;;;;;5083972;28;20200;-61
2023/01/01 12:19:19;;;;;;;18.75;14.07;;;;;;;;;;5083433;28;20192;-61
2023/01/01 12:21:46;;;;;;;15.18;12.80;;;;;;;;;;5083896;28;20200;-61
2023/01/01 12:24:12;;;;;;;14.32;10.77;;;;;;;;;;5083604;28;20278;-61
2023/01/01 12:26:46;;;;;;;11.88;8.80;;;;;;;;;;5083368;28;20196;-61
2023/01/01 12:29:27;;;;;;;14.35;9.52;;;;;;;;;;5083245;28;20418;-61
2023/01/01 12:31:57;;;;;;;9.13;7.45;;;;;;;;;;5083348;28;20214;-61
2023/01/01 12:34:26;;;;;;;9.18;7.30;;;;;;;;;;5083302;28;20201;-61
2023/01/01 12:36:56;;;;;;;11.90;7.97;;;;;;;;;;5083069;28;20219;-61
2023/01/01 12:39:37;;;;;;;15.07;10.50;;;;;;;;;;5082745;28;20201;-61
2023/01/01 12:42:06;;;;;;;15.18;11.45;;;;;;;;;;5083100;28;20196;-61
2023/01/01 12:44:40;;;;;;;17.73;12.32;;;;;;;;;;5083146;28;20203;-61
2023/01/01 12:47:11;;;;;;;13.77;12.27;;;;;;;;;;5083083;28;20499;-61
2023/01/01 12:49:47;;;;;;;16.90;12.25;;;;;;;;;;5083060;28;20231;-61
2023/01/01 12:52:21;;;;;;;18.50;11.90;;;;;;;;;;5083237;28;20503;-61
2023/01/01 12:54:57;;;;;;;14.32;11.75;;;;;;;;;;5083407;28;20276;-61
2023/01/01 12:57:28;;;;;;;14.20;11.55;;;;;;;;;;5083027;28;20249;-61
2023/01/01 12:59:56;;;;;;;13.32;10.23;;;;;;;;;;5082574;28;20500;-61
2023/01/01 13:02:23;;;;;;;12.48;9.60;;;;;;;;;;5083063;28;20421;-61
2023/01/01 13:04:55;;;;;;;10.80;9.18;;;;;;;;;;5083033;28;20288;-61
2023/01/01 13:07:23;;;;;;;11.35;8.45;;;;;;;;;;5083038;28;20185;-61
2023/01/01 13:09:50;;;;;;;9.98;8.23;;;;;;;;;;5082220;28;20220;-61
2023/01/01 13:12:17;;;;;;;14.43;8.02;;;;;;;;;;5082460;28;20215;-61
2023/01/01 13:14:45;;;;;;;12.43;7.90;;;;;;;;;;5082878;28;20203;-61
2023/01/01 13:17:17;;;;;;;10.05;7.22;;;;;;;;;;5082952;28;20201;-61
2023/01/01 13:19:44;;;;;;;8.60;6.85;;;;;;;;;;5082560;28;20369;-61
2023/01/01 13:22:40;;;;;;;12.35;6.60;;;;;;;;;;5082726;28;20212;-61
2023/01/01 13:25:18;;;;;;;10.75;7.00;;;;;;;;;;5082733;28;20196;-61
2023/01/01 13:28:04;;;;;;;9.50;6.47;;;;;;;;;;5082646;28;20263;-61
2023/01/01 13:30:47;;;;;;;10.20;5.68;;;;;;;;;;5082686;28;20203;-61
2023/01/01 13:33:16;;;;;;;11.65;5.55;;;;;;;;;;5082803;28;20196;-61
2023/01/01 13:35:43;;;;;;;9.20;6.07;;;;;;;;;;5082758;28;20238;-61
2023/01/01 13:38:24;;;;;;;8.25;6.38;;;;;;;;;;5082328;28;20266;-61
2023/01/01 13:40:52;;;;;;;6.18;5.60;;;;;;;;;;5082675;28;20196;-61
2023/01/01 13:43:29;;;;;;;7.90;5.00;;;;;;;;;;5082675;28;20223;-61
2023/01/01 13:45:56;;;;;;;6.30;5.55;;;;;;;;;;5082827;28;20267;-60
2023/01/01 13:48:30;;;;;;;11.30;5.43;;;;;;;;;;5082435;28;20200;-61
2023/01/01 13:51:00;;;;;;;7.13;5.70;;;;;;;;;;5082736;28;20450;-61
2023/01/01 13:53:33;;;;;;;10.10;5.93;;;;;;;;;;5082677;28;20208;-61
2023/01/01 13:56:08;;;;;;;5.85;5.30;;;;;;;;;;5082810;28;20203;-61
2023/01/01 13:59:06;;;;;;;9.93;4.80;;;;;;;;;;5082413;28;20192;-61
2023/01/01 14:01:49;;;;;;;8.60;5.30;;;;;;;;;;5020783;28;20198;-61
2023/01/01 14:04:20;;;;;;;5.78;4.72;;;;;;;;;;5074986;28;20390;-61
2023/01/01 14:06:50;;;;;;;6.95;5.60;;;;;;;;;;5082696;28;20258;-60
2023/01/01 14:09:19;;;;;;;9.35;6.03;;;;;;;;;;5082007;28;20268;-60
2023/01/01 14:11:47;;;;;;;12.57;5.65;;;;;;;;;;5082388;28;20196;-60
2023/01/01 14:14:23;;;;;;;9.48;5.85;;;;;;;;;;5082244;28;20196;-61
2023/01/01 14:16:50;;;;;;;9.75;5.70;;;;;;;;;;5082099;28;20304;-61
2023/01/01 14:19:16;;;;;;;11.10;5.50;;;;;;;;;;5081840;28;20195;-61
2023/01/01 14:21:43;;;;;;;8.50;5.10;;;;;;;;;;5081958;28;20586;-60
2023/01/01 14:24:11;;;;;;;10.70;5.18;;;;;;;;;;5081927;28;20197;-60
2023/01/01 14:26:38;;;;;;;7.05;4.90;;;;;;;;;;5085811;28;20200;-60